Allisonia, Virginia
Current Conditions -  °F | °C
As of 11:15 AM on Sunday 25 Jan 2015 (Local Time) from KPSK Reporting Station
Clear Clear  
Wind Chill: 37°   Ceiling: Unl
Heat Index: 43°   Visibility: 10mi
Dew Point: 34°   Wind: 9mph
Humidity: 70%   Direction: 210°SSW
Pressure: 29.85"   Gusts: NA
Location:  36.9752°N, 80.6434°W
Report Text: KPSK 251615Z AUTO 21008KT 10SM CLR 06/01 A2985 RMK AO2 T00600009
Loading
Personal Weather Stations






























Interactive Weather Map New forecast layout! Learn more

10-Day Weather Forecast

Advertisements
Track Severe Weather on mobile